createdAt,value
2018-08-24T00:02:10.485Z,81.40
2018-08-24T00:04:38.949Z,81.20
2018-08-24T00:07:07.444Z,80.80
2018-08-24T00:09:35.894Z,80.70
2018-08-24T00:12:04.517Z,80.70
2018-08-24T00:14:32.970Z,80.50
2018-08-24T00:17:01.395Z,80.20
2018-08-24T00:19:29.901Z,80.00
2018-08-24T00:21:58.337Z,79.80
2018-08-24T00:24:26.822Z,79.60
2018-08-24T00:26:55.287Z,79.20
2018-08-24T00:29:23.786Z,78.90
2018-08-24T00:31:52.298Z,78.50
2018-08-24T00:34:20.710Z,78.40
2018-08-24T00:36:49.164Z,78.50
2018-08-24T00:39:17.721Z,78.30
2018-08-24T00:41:46.198Z,79.00
2018-08-24T00:44:14.686Z,80.00
2018-08-24T00:46:43.187Z,79.70
2018-08-24T00:49:11.661Z,79.80
2018-08-24T00:51:40.116Z,79.40
2018-08-24T00:54:08.574Z,79.20
2018-08-24T00:56:37.025Z,79.10
2018-08-24T00:59:05.569Z,79.20
2018-08-24T01:01:34.044Z,79.30
2018-08-24T01:04:02.535Z,79.40
2018-08-24T01:06:30.996Z,79.50
2018-08-24T01:08:59.471Z,79.60
2018-08-24T01:11:33.330Z,79.70
2018-08-24T01:14:01.810Z,80.00
2018-08-24T01:16:35.618Z,80.20
2018-08-24T01:19:04.123Z,80.90
2018-08-24T01:21:32.604Z,81.50
2018-08-24T01:24:02.170Z,82.20
2018-08-24T01:26:30.626Z,82.80
2018-08-24T01:28:59.132Z,83.00
2018-08-24T01:31:27.613Z,83.00
2018-08-24T01:33:56.085Z,82.90
2018-08-24T01:36:24.521Z,82.50
2018-08-24T01:38:52.988Z,82.50
2018-08-24T01:41:21.509Z,82.30
2018-08-24T01:43:50.040Z,82.00
2018-08-24T01:46:18.484Z,82.00
2018-08-24T01:48:46.966Z,81.90
2018-08-24T01:51:15.439Z,82.00
2018-08-24T01:53:43.893Z,82.00
2018-08-24T01:56:12.373Z,81.90
2018-08-24T01:58:40.847Z,82.00
2018-08-24T02:01:09.322Z,81.70
2018-08-24T02:03:37.830Z,81.60
2018-08-24T02:06:07.183Z,81.40
2018-08-24T02:08:36.911Z,81.40
2018-08-24T02:11:38.320Z,81.00
2018-08-24T02:14:12.119Z,80.80
2018-08-24T02:16:41.838Z,80.50
2018-08-24T02:19:12.001Z,79.90
2018-08-24T02:21:45.921Z,80.00
2018-08-24T02:24:14.791Z,79.80
2018-08-24T02:26:44.246Z,79.70
2018-08-24T02:29:12.767Z,79.50
2018-08-24T02:31:46.653Z,79.50
2018-08-24T02:34:15.225Z,79.70
2018-08-24T02:36:44.317Z,79.50
2018-08-24T02:39:14.522Z,79.50
2018-08-24T02:41:43.078Z,79.70
2018-08-24T02:44:11.945Z,79.70
2018-08-24T02:46:41.323Z,79.70
2018-08-24T02:49:09.830Z,79.60
2018-08-24T02:51:38.287Z,79.60
2018-08-24T02:54:07.129Z,79.60
2018-08-24T02:56:35.578Z,79.40
2018-08-24T02:59:04.181Z,79.40
2018-08-24T03:01:32.700Z,79.20
2018-08-24T03:04:01.576Z,79.20
2018-08-24T03:06:30.116Z,78.90
2018-08-24T03:08:58.566Z,78.80
2018-08-24T03:11:27.086Z,78.80
2018-08-24T03:13:55.562Z,78.70
2018-08-24T03:16:24.038Z,78.80
2018-08-24T03:18:52.535Z,78.80
2018-08-24T03:21:21.011Z,78.90
2018-08-24T03:23:49.492Z,79.10
2018-08-24T03:26:17.989Z,79.40
2018-08-24T03:28:46.437Z,79.40
2018-08-24T03:31:14.914Z,79.40
2018-08-24T03:33:43.382Z,79.40
2018-08-24T03:36:11.870Z,79.40
2018-08-24T03:38:40.324Z,79.30
2018-08-24T03:41:09.853Z,79.60
2018-08-24T03:43:38.260Z,79.80
2018-08-24T03:46:06.778Z,80.20
2018-08-24T03:48:35.227Z,80.30
2018-08-24T03:51:03.717Z,80.70
2018-08-24T03:53:32.194Z,81.10
2018-08-24T03:56:00.646Z,81.50
2018-08-24T03:58:29.095Z,82.10
2018-08-24T04:00:58.740Z,82.60
2018-08-24T04:03:28.090Z,82.90
2018-08-24T04:05:56.605Z,83.10
2018-08-24T04:08:25.044Z,83.50
2018-08-24T04:10:53.521Z,83.70
2018-08-24T04:13:21.976Z,84.00
2018-08-24T04:15:50.446Z,83.90
2018-08-24T04:18:18.884Z,83.90
2018-08-24T04:20:47.349Z,83.80
2018-08-24T04:23:15.798Z,83.80
2018-08-24T04:25:44.296Z,83.70
2018-08-24T04:28:12.712Z,83.90
2018-08-24T04:30:41.328Z,84.00
2018-08-24T04:33:09.817Z,83.90
2018-08-24T04:35:38.310Z,83.90
2018-08-24T04:38:06.935Z,83.90
2018-08-24T04:40:35.380Z,83.90
2018-08-24T04:43:03.893Z,83.90
2018-08-24T04:45:32.437Z,83.80
2018-08-24T04:48:00.890Z,83.70
2018-08-24T04:50:29.316Z,84.10
2018-08-24T04:52:57.783Z,84.00
2018-08-24T04:55:26.235Z,83.80
2018-08-24T04:57:54.689Z,83.80
2018-08-24T05:00:23.150Z,84.00
2018-08-24T05:02:51.613Z,83.90
2018-08-24T05:05:20.093Z,83.80
2018-08-24T05:07:48.558Z,83.80
2018-08-24T05:10:16.987Z,83.80
2018-08-24T05:12:45.593Z,84.30
2018-08-24T05:15:14.038Z,84.40
2018-08-24T05:17:42.485Z,84.40
2018-08-24T05:20:10.910Z,84.40
2018-08-24T05:22:39.367Z,84.40
2018-08-24T05:25:07.842Z,84.50
2018-08-24T05:27:36.329Z,84.50
2018-08-24T05:30:04.880Z,84.50
2018-08-24T05:32:33.358Z,84.40
2018-08-24T05:35:01.791Z,84.40
2018-08-24T05:37:31.164Z,84.40
2018-08-24T05:39:59.586Z,84.00
2018-08-24T05:42:28.066Z,84.00
2018-08-24T05:44:56.504Z,83.90
2018-08-24T05:47:24.953Z,83.90
2018-08-24T05:49:53.392Z,83.90
2018-08-24T05:52:21.846Z,84.00
2018-08-24T05:54:50.261Z,83.80
2018-08-24T05:57:18.691Z,84.00
2018-08-24T05:59:47.201Z,83.70
2018-08-24T06:02:15.657Z,83.70
2018-08-24T06:04:44.118Z,83.60
2018-08-24T06:07:12.570Z,83.10
2018-08-24T06:09:41.026Z,82.90
2018-08-24T06:12:09.512Z,82.60
2018-08-24T06:14:38.005Z,82.30
2018-08-24T06:17:11.809Z,81.30
2018-08-24T06:19:43.588Z,81.00
2018-08-24T06:22:12.170Z,80.80
2018-08-24T06:24:40.586Z,80.80
2018-08-24T06:27:09.018Z,79.70
2018-08-24T06:29:37.543Z,79.70
2018-08-24T06:32:06.052Z,79.60
2018-08-24T06:34:34.506Z,79.20
2018-08-24T06:37:03.021Z,78.60
2018-08-24T06:39:31.392Z,78.40
2018-08-24T06:41:59.900Z,77.70
2018-08-24T06:44:28.257Z,77.90
2018-08-24T06:46:56.714Z,78.00
2018-08-24T06:49:25.180Z,78.30
2018-08-24T06:51:53.603Z,78.60
2018-08-24T06:54:22.099Z,78.40
2018-08-24T06:56:50.547Z,78.80
2018-08-24T06:59:19.017Z,78.20
2018-08-24T07:01:47.518Z,77.70
2018-08-24T07:04:15.982Z,78.10
2018-08-24T07:06:44.493Z,78.20
2018-08-24T07:09:12.976Z,77.90
2018-08-24T07:11:41.443Z,78.30
2018-08-24T07:14:09.889Z,78.40
2018-08-24T07:16:38.362Z,78.20
2018-08-24T07:19:06.833Z,78.00
2018-08-24T07:21:35.579Z,78.90
2018-08-24T07:24:04.041Z,78.00
2018-08-24T07:26:32.477Z,78.20
2018-08-24T07:29:00.971Z,77.90
2018-08-24T07:31:29.422Z,78.00
2018-08-24T07:33:57.906Z,78.10
2018-08-24T07:36:26.354Z,77.80
2018-08-24T07:38:54.830Z,78.50
2018-08-24T07:41:23.410Z,78.30
2018-08-24T07:43:51.849Z,78.10
2018-08-24T07:46:20.319Z,78.00
2018-08-24T07:48:48.766Z,78.00
2018-08-24T07:51:17.223Z,78.00
2018-08-24T07:53:45.729Z,77.70
2018-08-24T07:56:14.159Z,77.40
2018-08-24T07:58:42.703Z,77.30
2018-08-24T08:01:11.139Z,77.60
2018-08-24T08:03:39.593Z,77.80
2018-08-24T08:06:08.096Z,76.10
2018-08-24T08:08:36.555Z,75.30
2018-08-24T08:11:05.303Z,75.30
2018-08-24T08:13:33.782Z,75.50
2018-08-24T08:16:02.209Z,76.10
2018-08-24T08:18:30.709Z,75.20
2018-08-24T08:20:59.114Z,73.10
2018-08-24T08:23:27.570Z,72.80
2018-08-24T08:25:56.015Z,72.60
2018-08-24T08:28:25.032Z,72.60
2018-08-24T08:30:53.495Z,72.50
2018-08-24T08:33:21.947Z,73.00
2018-08-24T08:35:50.420Z,73.20
2018-08-24T08:38:18.926Z,73.20
2018-08-24T08:40:47.391Z,71.60
2018-08-24T08:43:15.802Z,71.80
2018-08-24T08:45:44.278Z,71.60
2018-08-24T08:48:12.695Z,71.40
2018-08-24T08:50:41.248Z,71.70
2018-08-24T08:53:10.247Z,72.10
2018-08-24T08:55:38.664Z,71.50
2018-08-24T08:58:07.408Z,70.40
2018-08-24T09:00:35.861Z,69.80
2018-08-24T09:03:04.378Z,68.90
2018-08-24T09:05:32.858Z,68.90
2018-08-24T09:08:01.290Z,66.20
2018-08-24T09:10:29.835Z,64.90
2018-08-24T09:12:58.391Z,65.30
2018-08-24T09:15:26.820Z,66.10
2018-08-24T09:18:00.645Z,66.20
2018-08-24T09:20:34.372Z,66.40
2018-08-24T09:23:08.218Z,66.90
2018-08-24T09:25:41.910Z,66.80
2018-08-24T09:28:15.787Z,67.30
2018-08-24T09:30:48.090Z,66.10
2018-08-24T09:33:18.633Z,64.70
2018-08-24T09:35:47.094Z,62.90
2018-08-24T09:38:15.853Z,62.80
2018-08-24T09:40:49.539Z,62.70
2018-08-24T09:43:23.705Z,62.10
2018-08-24T09:45:52.146Z,63.50
2018-08-24T09:48:36.832Z,63.60
2018-08-24T09:51:10.472Z,64.10
2018-08-24T09:53:44.630Z,63.20
2018-08-24T09:56:13.086Z,62.30
2018-08-24T09:58:41.579Z,60.00
2018-08-24T10:03:20.022Z,59.70
2018-08-24T10:05:53.838Z,57.60
2018-08-24T10:08:27.699Z,55.50
2018-08-24T10:10:56.161Z,55.30
2018-08-24T10:13:24.655Z,55.10
2018-08-24T10:15:53.102Z,54.30
2018-08-24T10:18:21.589Z,53.40
2018-08-24T10:20:50.045Z,53.40
2018-08-24T10:23:18.470Z,53.70
2018-08-24T10:25:46.909Z,54.00
2018-08-24T10:28:15.355Z,53.10
2018-08-24T10:30:43.822Z,53.10
2018-08-24T10:33:12.238Z,53.60
2018-08-24T10:35:40.699Z,53.40
2018-08-24T10:38:09.125Z,53.40
2018-08-24T10:40:37.578Z,52.20
2018-08-24T10:43:06.070Z,52.10
2018-08-24T10:45:35.134Z,52.50
2018-08-24T10:48:03.580Z,52.40
2018-08-24T10:50:32.040Z,52.70
2018-08-24T10:53:00.658Z,53.20
2018-08-24T10:55:29.236Z,53.60
2018-08-24T10:57:57.742Z,53.80
2018-08-24T11:00:26.237Z,54.70
2018-08-24T11:02:54.678Z,54.30
2018-08-24T11:05:23.396Z,54.10
2018-08-24T11:07:51.908Z,53.40
2018-08-24T11:10:20.299Z,51.80
2018-08-24T11:12:48.712Z,52.00
2018-08-24T11:15:17.177Z,51.60
2018-08-24T11:17:50.909Z,51.80
2018-08-24T11:20:19.390Z,50.00
2018-08-24T11:22:47.826Z,49.10
2018-08-24T11:25:16.295Z,49.30
2018-08-24T11:27:44.764Z,50.00
2018-08-24T11:30:13.236Z,49.70
2018-08-24T11:32:41.660Z,49.80
2018-08-24T11:35:10.132Z,50.60
2018-08-24T11:37:38.576Z,50.90
2018-08-24T11:40:07.082Z,51.80
2018-08-24T11:42:35.826Z,50.40
2018-08-24T11:45:04.382Z,50.20
2018-08-24T11:47:32.813Z,49.10
2018-08-24T11:50:01.757Z,49.10
2018-08-24T11:52:30.201Z,49.80
2018-08-24T11:54:58.638Z,49.10
2018-08-24T11:57:27.161Z,49.00
2018-08-24T11:59:55.672Z,49.10
2018-08-24T12:02:24.107Z,49.50
2018-08-24T12:04:52.594Z,48.90
2018-08-24T12:07:21.042Z,47.80
2018-08-24T12:09:49.558Z,48.20
2018-08-24T12:12:18.101Z,50.00
2018-08-24T12:14:46.849Z,50.80
2018-08-24T12:17:20.457Z,50.20
2018-08-24T12:19:49.365Z,50.90
2018-08-24T12:22:17.803Z,50.80
2018-08-24T12:24:47.630Z,51.60
2018-08-24T12:27:16.125Z,51.60
2018-08-24T12:29:44.560Z,52.10
2018-08-24T12:32:12.996Z,51.20
2018-08-24T12:34:41.665Z,51.20
2018-08-24T12:37:11.652Z,50.60
2018-08-24T12:39:40.706Z,51.60
2018-08-24T12:42:10.408Z,52.40
2018-08-24T12:44:39.597Z,52.50
2018-08-24T12:47:08.459Z,53.40
2018-08-24T12:49:36.891Z,53.00
2018-08-24T12:52:05.440Z,52.00
2018-08-24T12:54:33.906Z,52.10
2018-08-24T12:57:02.923Z,51.00
2018-08-24T12:59:31.367Z,50.80
2018-08-24T13:01:59.944Z,51.20
2018-08-24T13:04:28.414Z,50.80
2018-08-24T13:06:56.883Z,50.80
2018-08-24T13:09:25.426Z,51.00
2018-08-24T13:11:53.882Z,50.80
2018-08-24T13:14:22.383Z,52.00
2018-08-24T13:16:50.860Z,51.90
2018-08-24T13:19:19.294Z,53.20
2018-08-24T13:21:47.769Z,53.10
2018-08-24T13:24:16.223Z,51.40
2018-08-24T13:26:44.693Z,51.60
2018-08-24T13:29:13.147Z,51.40
2018-08-24T13:31:41.644Z,51.20
2018-08-24T13:34:10.430Z,51.20
2018-08-24T13:36:39.021Z,51.80
2018-08-24T13:39:08.258Z,51.70
2018-08-24T13:41:37.161Z,52.30
2018-08-24T13:44:05.784Z,52.60
2018-08-24T13:46:34.249Z,51.40
2018-08-24T13:49:02.694Z,50.40
2018-08-24T13:55:34.529Z,48.90
2018-08-24T13:58:03.160Z,50.70
2018-08-24T14:00:31.591Z,51.40
2018-08-24T14:03:00.078Z,51.60
2018-08-24T14:05:28.538Z,52.10
2018-08-24T14:07:56.982Z,52.50
2018-08-24T14:10:25.442Z,52.80
2018-08-24T14:12:53.946Z,53.20
2018-08-24T14:15:22.384Z,53.60
2018-08-24T14:17:52.784Z,54.00
2018-08-24T14:20:22.338Z,53.40
2018-08-24T14:22:51.075Z,52.60
2018-08-24T14:25:19.934Z,52.90
2018-08-24T14:27:48.839Z,53.40
2018-08-24T14:30:17.301Z,53.80
2018-08-24T14:32:46.231Z,54.30
2018-08-24T14:35:14.678Z,54.80
2018-08-24T14:37:43.126Z,55.60
2018-08-24T14:40:11.617Z,56.00
2018-08-24T14:42:40.038Z,56.30
2018-08-24T14:45:08.557Z,55.90
2018-08-24T14:47:37.005Z,56.10
2018-08-24T14:50:06.050Z,56.20
2018-08-24T14:52:34.505Z,56.70
2018-08-24T14:55:02.986Z,56.80
2018-08-24T14:57:31.554Z,57.40
2018-08-24T14:59:59.939Z,57.80
2018-08-24T15:02:28.369Z,57.80
2018-08-24T15:04:56.850Z,57.10
2018-08-24T15:07:25.294Z,57.40
2018-08-24T15:09:53.843Z,57.60
2018-08-24T15:12:22.237Z,57.00
2018-08-24T15:14:50.742Z,57.40
2018-08-24T15:17:19.407Z,57.60
2018-08-24T15:19:47.931Z,57.00
2018-08-24T15:22:16.386Z,57.20
2018-08-24T15:24:44.889Z,57.00
2018-08-24T15:27:13.369Z,57.10
2018-08-24T15:29:41.888Z,57.10
2018-08-24T15:32:10.307Z,57.30
2018-08-24T15:34:39.413Z,57.60
2018-08-24T15:37:07.903Z,57.60
2018-08-24T15:39:36.447Z,57.90
2018-08-24T15:42:04.962Z,58.10
2018-08-24T15:44:33.521Z,58.50
2018-08-24T15:47:02.006Z,58.60
2018-08-24T15:49:30.501Z,58.40
2018-08-24T15:51:59.064Z,58.50
2018-08-24T15:54:28.107Z,58.70
2018-08-24T15:56:56.654Z,58.70
2018-08-24T15:59:25.166Z,58.90
2018-08-24T16:01:53.615Z,58.40
2018-08-24T16:04:22.190Z,58.10
2018-08-24T16:06:50.999Z,58.30
2018-08-24T16:09:19.500Z,58.00
2018-08-24T16:11:48.122Z,57.80
2018-08-24T16:14:16.738Z,58.00
2018-08-24T16:16:45.266Z,57.90
2018-08-24T16:19:13.738Z,57.90
2018-08-24T16:21:42.527Z,57.10
2018-08-24T16:24:11.179Z,57.30
2018-08-24T16:26:39.907Z,57.60
2018-08-24T16:29:08.709Z,57.30
2018-08-24T16:31:37.553Z,57.50
2018-08-24T16:34:06.289Z,57.80
2018-08-24T16:36:34.941Z,58.00
2018-08-24T16:39:04.113Z,58.30
2018-08-24T16:41:32.769Z,58.40
2018-08-24T16:44:01.336Z,58.80
2018-08-24T16:46:29.977Z,59.00
2018-08-24T16:48:58.625Z,59.10
2018-08-24T16:51:27.349Z,59.30
2018-08-24T16:53:57.321Z,58.70
2018-08-24T16:56:26.438Z,58.20
2018-08-24T16:58:55.187Z,58.50
2018-08-24T17:01:24.023Z,58.20
2018-08-24T17:03:54.059Z,58.40
2018-08-24T17:06:22.449Z,58.50
2018-08-24T17:08:50.934Z,58.70
2018-08-24T17:11:19.386Z,58.80
2018-08-24T17:13:47.924Z,58.70
2018-08-24T17:16:16.326Z,59.00
2018-08-24T17:18:45.248Z,59.10
2018-08-24T17:21:13.723Z,59.00
2018-08-24T17:23:42.168Z,59.20
2018-08-24T17:26:10.656Z,59.40
2018-08-24T17:28:39.135Z,59.50
2018-08-24T17:31:07.593Z,59.70
2018-08-24T17:33:36.042Z,59.70
2018-08-24T17:36:04.585Z,60.00
2018-08-24T17:38:34.520Z,60.00
2018-08-24T17:41:03.068Z,60.10
2018-08-24T17:43:32.646Z,60.10
2018-08-24T17:46:01.129Z,60.50
2018-08-24T17:48:29.787Z,60.70
2018-08-24T17:50:58.339Z,61.20
2018-08-24T17:53:26.808Z,61.10
2018-08-24T17:55:55.421Z,61.40
2018-08-24T17:58:24.070Z,61.40
2018-08-24T18:00:52.654Z,62.00
2018-08-24T18:03:21.370Z,62.20
2018-08-24T18:05:49.851Z,61.30
2018-08-24T18:08:18.498Z,62.00
2018-08-24T18:10:47.061Z,62.60
2018-08-24T18:13:15.686Z,62.60
2018-08-24T18:15:44.256Z,63.50
2018-08-24T18:18:12.734Z,63.00
2018-08-24T18:20:41.227Z,62.90
2018-08-24T18:23:09.920Z,63.20
2018-08-24T18:25:38.645Z,63.40
2018-08-24T18:28:07.503Z,63.50
2018-08-24T18:30:36.271Z,63.60
2018-08-24T18:33:05.212Z,63.70
2018-08-24T18:35:33.792Z,63.80
2018-08-24T18:38:02.594Z,64.20
2018-08-24T18:40:31.525Z,64.40
2018-08-24T18:43:00.117Z,64.80
2018-08-24T18:45:28.703Z,64.50
2018-08-24T18:47:57.366Z,64.40
2018-08-24T18:50:26.439Z,64.60
2018-08-24T18:52:55.988Z,64.60
2018-08-24T18:55:24.453Z,64.50
2018-08-24T18:57:54.242Z,64.60
2018-08-24T19:00:23.317Z,64.90
2018-08-24T19:02:53.214Z,64.90
2018-08-24T19:05:21.675Z,64.90
2018-08-24T19:07:54.383Z,64.80
2018-08-24T19:10:23.354Z,64.70
2018-08-24T19:12:52.357Z,65.10
2018-08-24T19:15:20.795Z,65.00
2018-08-24T19:17:54.626Z,65.30
2018-08-24T19:20:28.396Z,65.70
2018-08-24T19:22:56.985Z,65.80
2018-08-24T19:25:25.482Z,66.20
2018-08-24T19:27:59.245Z,66.40
2018-08-24T19:30:33.122Z,66.60
2018-08-24T19:33:02.536Z,66.80
2018-08-24T19:35:31.388Z,67.00
2018-08-24T19:37:59.997Z,67.10
2018-08-24T19:40:33.838Z,67.40
2018-08-24T19:43:02.535Z,67.40
2018-08-24T19:45:31.093Z,67.60
2018-08-24T19:48:04.994Z,68.20
2018-08-24T19:50:33.515Z,68.40
2018-08-24T19:53:03.462Z,68.50
2018-08-24T19:55:31.909Z,69.00
2018-08-24T19:58:05.933Z,69.10
2018-08-24T20:00:34.434Z,70.00
2018-08-24T20:03:03.031Z,69.20
2018-08-24T20:05:31.505Z,69.40
2018-08-24T20:08:05.362Z,69.50
2018-08-24T20:10:33.822Z,69.60
2018-08-24T20:13:02.524Z,69.80
2018-08-24T20:15:36.486Z,69.70
2018-08-24T20:18:05.430Z,69.80
2018-08-24T20:20:33.915Z,69.90
2018-08-24T20:23:02.505Z,69.80
2018-08-24T20:25:31.123Z,70.20
2018-08-24T20:28:00.046Z,70.20
2018-08-24T20:30:28.518Z,70.20
2018-08-24T20:32:57.148Z,70.40
2018-08-24T20:35:26.035Z,70.50
2018-08-24T20:37:54.502Z,70.40
2018-08-24T20:40:23.091Z,70.50
2018-08-24T20:42:51.727Z,70.60
2018-08-24T20:45:20.505Z,70.90
2018-08-24T20:47:49.038Z,71.00
2018-08-24T20:50:17.495Z,71.00
2018-08-24T20:52:47.773Z,71.00
2018-08-24T20:55:16.314Z,71.00
2018-08-24T20:57:44.846Z,71.00
2018-08-24T21:00:13.354Z,71.00
2018-08-24T21:02:41.902Z,71.00
2018-08-24T21:05:10.534Z,71.00
2018-08-24T21:07:39.608Z,71.00
2018-08-24T21:10:08.223Z,71.00
2018-08-24T21:12:36.863Z,71.00
2018-08-24T21:15:05.592Z,71.10
2018-08-24T21:17:34.223Z,71.10
2018-08-24T21:20:02.922Z,71.30
2018-08-24T21:22:31.725Z,71.30
2018-08-24T21:25:00.333Z,71.60
2018-08-24T21:27:29.238Z,71.80
2018-08-24T21:29:57.920Z,71.80
2018-08-24T21:32:26.475Z,71.90
2018-08-24T21:34:55.011Z,71.90
2018-08-24T21:37:23.509Z,72.00
2018-08-24T21:39:51.986Z,72.00
2018-08-24T21:42:20.498Z,72.00
2018-08-24T21:44:49.118Z,72.20
2018-08-24T21:47:17.600Z,72.20
2018-08-24T21:49:46.042Z,72.50
2018-08-24T21:52:14.608Z,72.50
2018-08-24T21:54:43.060Z,72.50
2018-08-24T21:57:11.571Z,72.60
2018-08-24T21:59:40.034Z,72.70
2018-08-24T22:02:08.617Z,72.80
2018-08-24T22:04:37.065Z,72.90
2018-08-24T22:07:05.566Z,73.00
2018-08-24T22:09:34.013Z,73.10
2018-08-24T22:12:02.451Z,73.10
2018-08-24T22:14:30.966Z,73.10
2018-08-24T22:16:59.434Z,73.20
2018-08-24T22:19:27.845Z,73.40
2018-08-24T22:21:56.422Z,73.40
2018-08-24T22:24:24.896Z,73.60
2018-08-24T22:26:53.369Z,73.60
2018-08-24T22:29:21.869Z,73.70
2018-08-24T22:31:50.350Z,73.50
2018-08-24T22:34:18.819Z,73.60
2018-08-24T22:36:47.301Z,73.60
2018-08-24T22:39:15.804Z,73.80
2018-08-24T22:41:44.276Z,73.80
2018-08-24T22:44:12.794Z,73.90
2018-08-24T22:46:41.280Z,73.80
2018-08-24T22:49:09.763Z,73.90
2018-08-24T22:51:38.251Z,73.90
2018-08-24T22:54:06.746Z,74.70
2018-08-24T22:56:35.253Z,74.00
2018-08-24T22:59:03.848Z,73.90
2018-08-24T23:01:32.338Z,74.10
2018-08-24T23:04:00.813Z,74.00
2018-08-24T23:06:29.322Z,74.10
2018-08-24T23:08:57.817Z,74.00
2018-08-24T23:11:26.296Z,74.10
2018-08-24T23:13:54.807Z,74.10
2018-08-24T23:16:23.274Z,74.10
2018-08-24T23:18:51.799Z,74.10
2018-08-24T23:21:20.278Z,74.00
2018-08-24T23:23:48.754Z,74.20
2018-08-24T23:26:17.220Z,74.00
2018-08-24T23:28:45.723Z,74.30
2018-08-24T23:31:14.181Z,74.10
2018-08-24T23:33:42.686Z,74.10
2018-08-24T23:36:11.189Z,74.10
2018-08-24T23:38:39.704Z,74.10
2018-08-24T23:41:08.182Z,74.30
2018-08-24T23:43:36.705Z,74.10
2018-08-24T23:46:05.170Z,74.00
2018-08-24T23:48:33.742Z,74.00
2018-08-24T23:51:02.187Z,74.00
2018-08-24T23:53:30.687Z,74.00
2018-08-24T23:55:59.164Z,74.00
2018-08-24T23:58:27.651Z,73.90
